Freeport, Michigan
Current Conditions -  °F | °C
As of 2:53 AM on Friday 19 Dec 2014 (Local Time) from KGRR Reporting Station
Overcast Overcast  
Wind Chill: 22°   Ceiling: 2100
Heat Index: 28°   Visibility: 10mi
Dew Point: 22°   Wind: 6mph
Humidity: 78%   Direction: 360°N
Pressure: 30.22"   Gusts: NA
Location:  42.77°N, 85.31°W
Report Text: KGRR 190753Z AUTO 36005KT 10SM OVC021 M02/M06 A3022 RMK AO2 SLP243 T10221056
Loading
Personal Weather Stations






























Interactive Weather Map New forecast layout! Learn more

10-Day Weather Forecast

Advertisements
Track Severe Weather on mobile